Главная страница
METAR-TAF:

METAR-TAF

Аэропорты :

Дубай, Объединенные Арабские Эмираты

широта: 25-15-10N, долгота: 055-21-52E, высота над уровнем моря: 8 м

Текущие метеонаблюдения

Эта сводка был подготовлена 11 минут назад, в 03:00 UTC
Ветер 6 Узел от юго-восточный, изменяющийся между восточно-юго-восточный и южный
Температура 33°C
Влажность 75%
Давление 999 hPa
Видимость: 6000 м

METAR: OMDB 170300Z 14006KT 110V170 6000 NSC 33/28 Q0999 NOSIG

Время: 07:11 (03:11 UTC)

Прогноз

Эта сводка был подготовлена 4 часа и 15 минут назад, в 22:56 UTC
Прогноз действительный с 17-го 00 UTC до 18-го 06 UTC
Ветер 5 Узел от восточно-юго-восточный
Видимость: 8000 м
изменения
С 17-го 07 UTC до 17-го 09 UTC
Ветер 12 Узел от северо-западный
изменения
С 17-го 17 UTC до 17-го 19 UTC
Ветер 5 Узел от восточный

TAF: OMDB 162256Z 1700/1806 12005KT 8000 NSC BECMG 1707/1709 32012KT BECMG 1717/1719 09005KT

Метеонаблюдения и прогнозы для более 4000 аэропортов (сводки METAR и TAF).

Имеющиеся станции представлены на карте желтыми и красными точками.

Чтобы увидеть название станции, наведите на нее мышь.

Затем щелкните, чтобы увидеть метеонаблюдения и метеопрогнозы.

Управление картой: чтобы увеличить масштаб, щелкните зеленые кнопки с черным крестиком; чтобы уменьшить масштаб, щелкните зеленую кнопку с тире; для просмотра соседних карт щелкайте зеленые стрелки.


METAR-TAF: